createdAt,value
2019-02-14T00:00:18.864Z,13.33
2019-02-14T00:02:48.117Z,10.70
2019-02-14T00:05:16.812Z,10.70
2019-02-14T00:07:44.598Z,16.80
2019-02-14T00:10:12.294Z,17.73
2019-02-14T00:12:39.384Z,12.70
2019-02-14T00:15:07.618Z,20.83
2019-02-14T00:17:42.612Z,10.57
2019-02-14T00:20:11.406Z,15.90
2019-02-14T00:22:39.094Z,12.03
2019-02-14T00:25:05.991Z,16.50
2019-02-14T00:27:32.718Z,8.70
2019-02-14T00:30:01.821Z,14.20
2019-02-14T00:32:29.191Z,13.70
2019-02-14T00:34:56.648Z,13.90
2019-02-14T00:37:23.993Z,11.77
2019-02-14T00:39:52.422Z,14.70
2019-02-14T00:42:19.492Z,13.40
2019-02-14T00:44:47.305Z,13.50
2019-02-14T00:47:14.750Z,15.90
2019-02-14T00:49:42.539Z,15.50
2019-02-14T00:52:11.702Z,14.60
2019-02-14T00:54:39.170Z,17.50
2019-02-14T00:57:07.254Z,13.60
2019-02-14T00:59:34.189Z,14.50
2019-02-14T01:02:06.893Z,23.62
2019-02-14T01:04:34.266Z,14.17
2019-02-14T01:07:01.433Z,9.33
2019-02-14T01:09:29.978Z,11.67
2019-02-14T01:11:56.653Z,13.57
2019-02-14T01:14:23.803Z,11.27
2019-02-14T01:16:50.563Z,18.80
2019-02-14T01:19:18.430Z,20.37
2019-02-14T01:21:45.138Z,21.30
2019-02-14T01:24:12.142Z,13.57
2019-02-14T01:26:38.806Z,13.60
2019-02-14T01:29:05.900Z,22.73
2019-02-14T01:31:33.111Z,23.87
2019-02-14T01:34:01.447Z,14.40
2019-02-14T01:36:28.237Z,20.77
2019-02-14T01:38:55.955Z,12.30
2019-02-14T01:41:23.050Z,15.25
2019-02-14T01:43:51.170Z,15.47
2019-02-14T01:46:19.076Z,22.73
2019-02-14T01:48:52.347Z,23.27
2019-02-14T01:51:19.932Z,22.27
2019-02-14T01:53:46.897Z,17.10
2019-02-14T01:56:13.932Z,17.07
2019-02-14T01:58:41.214Z,17.47
2019-02-14T02:01:07.882Z,16.00
2019-02-14T02:03:35.664Z,19.60
2019-02-14T02:06:02.348Z,12.70
2019-02-14T02:08:29.620Z,17.20
2019-02-14T02:10:56.407Z,19.32
2019-02-14T02:13:23.345Z,14.37
2019-02-14T02:15:50.942Z,18.37
2019-02-14T02:18:20.614Z,22.05
2019-02-14T02:20:47.866Z,11.13
2019-02-14T02:23:15.484Z,24.73
2019-02-14T02:25:45.929Z,20.70
2019-02-14T02:28:12.929Z,16.87
2019-02-14T02:30:44.120Z,11.80
2019-02-14T02:33:11.535Z,14.18
2019-02-14T02:35:38.247Z,19.10
2019-02-14T02:38:08.850Z,22.77
2019-02-14T02:40:35.776Z,22.42
2019-02-14T02:43:03.324Z,20.13
2019-02-14T02:45:30.593Z,17.12
2019-02-14T02:47:57.939Z,15.17
2019-02-14T02:50:25.420Z,17.90
2019-02-14T02:52:52.653Z,19.15
2019-02-14T02:55:19.808Z,23.12
2019-02-14T02:57:56.283Z,23.18
2019-02-14T03:00:24.075Z,24.00
2019-02-14T03:02:51.791Z,22.58
2019-02-14T03:05:25.846Z,17.87
2019-02-14T03:07:52.934Z,14.70
2019-02-14T03:10:19.982Z,15.98
2019-02-14T03:12:47.791Z,26.73
2019-02-14T03:15:15.536Z,27.50
2019-02-14T03:17:42.207Z,27.58
2019-02-14T03:20:10.678Z,25.17
2019-02-14T03:22:37.581Z,26.13
2019-02-14T03:25:07.516Z,26.43
2019-02-14T03:27:34.619Z,22.33
2019-02-14T03:30:01.409Z,25.73
2019-02-14T03:32:29.064Z,24.70
2019-02-14T03:34:55.736Z,28.00
2019-02-14T03:37:22.969Z,18.95
2019-02-14T03:39:50.702Z,21.33
2019-02-14T03:42:17.386Z,10.03
2019-02-14T03:44:44.805Z,15.30
2019-02-14T03:47:11.739Z,21.02
2019-02-14T03:49:39.521Z,14.87
2019-02-14T03:52:06.508Z,12.30
2019-02-14T03:54:33.587Z,13.45
2019-02-14T03:57:01.506Z,25.35
2019-02-14T03:59:28.740Z,26.87
2019-02-14T04:01:55.965Z,30.23
2019-02-14T04:04:23.146Z,27.83
2019-02-14T04:06:49.826Z,10.30
2019-02-14T04:09:17.379Z,18.65
2019-02-14T04:11:44.553Z,11.63
2019-02-14T04:14:11.605Z,20.40
2019-02-14T04:16:39.068Z,13.40
2019-02-14T04:19:06.238Z,28.75
2019-02-14T04:21:33.545Z,19.10
2019-02-14T04:24:00.473Z,15.32
2019-02-14T04:26:27.246Z,15.85
2019-02-14T04:28:54.590Z,17.10
2019-02-14T04:31:22.502Z,17.90
2019-02-14T04:33:50.261Z,15.70
2019-02-14T04:36:18.702Z,24.80
2019-02-14T04:38:45.903Z,21.40
2019-02-14T04:41:13.149Z,14.40
2019-02-14T04:43:40.168Z,15.58
2019-02-14T04:46:07.256Z,27.32
2019-02-14T04:48:34.483Z,28.73
2019-02-14T04:51:24.331Z,26.90
2019-02-14T04:53:51.109Z,30.75
2019-02-14T04:56:18.350Z,29.77
2019-02-14T04:58:45.933Z,30.43
2019-02-14T05:01:17.106Z,26.25
2019-02-14T05:03:44.476Z,28.10
2019-02-14T05:06:11.859Z,17.37
2019-02-14T05:08:39.815Z,25.40
2019-02-14T05:11:07.344Z,18.75
2019-02-14T05:13:35.583Z,23.85
2019-02-14T05:16:03.458Z,23.07
2019-02-14T05:18:30.546Z,26.17
2019-02-14T05:21:02.773Z,23.52
2019-02-14T05:23:30.529Z,28.83
2019-02-14T05:25:57.325Z,20.90
2019-02-14T05:28:25.318Z,11.65
2019-02-14T05:30:52.375Z,14.85
2019-02-14T05:33:19.941Z,27.20
2019-02-14T05:35:47.162Z,30.52
2019-02-14T05:38:14.935Z,32.58
2019-02-14T05:40:42.247Z,32.90
2019-02-14T05:43:09.155Z,29.73
2019-02-14T05:45:36.682Z,26.85
2019-02-14T05:48:04.227Z,26.97
2019-02-14T05:50:30.911Z,30.17
2019-02-14T05:52:58.348Z,26.48
2019-02-14T05:55:25.054Z,28.30
2019-02-14T05:57:53.065Z,19.65
2019-02-14T06:00:20.054Z,23.92
2019-02-14T06:02:46.751Z,22.80
2019-02-14T06:05:14.066Z,25.12
2019-02-14T06:07:41.523Z,27.70
2019-02-14T06:10:08.385Z,25.40
2019-02-14T06:12:35.319Z,25.32
2019-02-14T06:15:03.223Z,23.45
2019-02-14T06:17:31.058Z,25.57
2019-02-14T06:19:57.974Z,30.55
2019-02-14T06:22:25.770Z,26.50
2019-02-14T06:24:52.579Z,28.70
2019-02-14T06:27:19.564Z,32.48
2019-02-14T06:29:46.533Z,29.92
2019-02-14T06:32:13.882Z,30.87
2019-02-14T06:34:41.336Z,31.33
2019-02-14T06:37:12.646Z,30.90
2019-02-14T06:39:40.141Z,27.98
2019-02-14T06:42:07.667Z,31.37
2019-02-14T06:44:38.636Z,21.00
2019-02-14T06:47:05.314Z,22.03
2019-02-14T06:49:32.819Z,17.40
2019-02-14T06:51:59.581Z,28.95
2019-02-14T06:54:26.805Z,11.10
2019-02-14T06:56:53.515Z,25.52
2019-02-14T06:59:20.690Z,18.45
2019-02-14T07:01:47.357Z,27.32
2019-02-14T07:04:14.559Z,17.65
2019-02-14T07:06:41.878Z,25.95
2019-02-14T07:09:08.549Z,22.98
2019-02-14T07:11:35.252Z,26.68
2019-02-14T07:14:02.060Z,21.45
2019-02-14T07:16:28.748Z,15.40
2019-02-14T07:18:56.140Z,29.18
2019-02-14T07:21:22.831Z,21.70
2019-02-14T07:23:50.024Z,18.15
2019-02-14T07:26:17.161Z,21.97
2019-02-14T07:28:44.316Z,18.35
2019-02-14T07:31:11.356Z,16.40
2019-02-14T07:33:38.411Z,22.87
2019-02-14T07:36:05.179Z,27.98
2019-02-14T07:38:31.870Z,15.68
2019-02-14T07:40:58.958Z,28.83
2019-02-14T07:43:26.262Z,29.02
2019-02-14T07:45:59.217Z,28.95
2019-02-14T07:48:26.965Z,25.17
2019-02-14T07:50:54.805Z,17.20
2019-02-14T07:53:22.704Z,25.10
2019-02-14T07:55:50.239Z,31.00
2019-02-14T07:58:16.955Z,28.87
2019-02-14T08:00:44.484Z,27.95
2019-02-14T08:03:11.846Z,30.90
2019-02-14T08:05:40.683Z,28.60
2019-02-14T08:08:08.138Z,11.60
2019-02-14T08:10:35.449Z,11.95
2019-02-14T08:13:02.249Z,24.90
2019-02-14T08:15:29.658Z,23.12
2019-02-14T08:17:57.240Z,21.15
2019-02-14T08:20:24.793Z,13.33
2019-02-14T08:22:51.494Z,17.50
2019-02-14T08:25:18.917Z,20.65
2019-02-14T08:27:46.866Z,25.95
2019-02-14T08:30:14.846Z,17.35
2019-02-14T08:32:41.671Z,19.95
2019-02-14T08:35:09.290Z,20.20
2019-02-14T08:37:44.975Z,22.17
2019-02-14T08:40:22.419Z,14.63
2019-02-14T08:42:50.384Z,16.52
2019-02-14T08:45:18.129Z,17.48
2019-02-14T08:47:45.322Z,26.93
2019-02-14T08:50:12.116Z,29.45
2019-02-14T08:52:39.890Z,16.67
2019-02-14T08:55:07.255Z,14.23
2019-02-14T08:57:34.415Z,18.57
2019-02-14T09:00:01.228Z,11.03
2019-02-14T09:02:28.042Z,14.07
2019-02-14T09:04:54.857Z,19.73
2019-02-14T09:07:22.521Z,16.70
2019-02-14T09:10:11.525Z,29.25
2019-02-14T09:12:39.817Z,20.05
2019-02-14T09:15:07.238Z,13.28
2019-02-14T09:17:35.052Z,25.95
2019-02-14T09:20:01.734Z,20.62
2019-02-14T09:22:31.967Z,11.53
2019-02-14T09:24:59.485Z,26.50
2019-02-14T09:27:26.789Z,18.35
2019-02-14T09:30:28.973Z,20.17
2019-02-14T09:32:55.815Z,20.52
2019-02-14T09:35:23.255Z,24.55
2019-02-14T09:37:50.508Z,17.85
2019-02-14T09:40:17.683Z,10.67
2019-02-14T09:42:44.410Z,25.75
2019-02-14T09:45:11.598Z,16.42
2019-02-14T09:47:38.672Z,16.73
2019-02-14T09:50:09.456Z,25.90
2019-02-14T09:52:44.379Z,26.50
2019-02-14T09:55:12.444Z,16.10
2019-02-14T09:57:40.926Z,19.63
2019-02-14T10:00:12.006Z,15.70
2019-02-14T10:02:38.875Z,21.70
2019-02-14T10:05:06.317Z,16.53
2019-02-14T10:07:33.555Z,21.20
2019-02-14T10:10:01.243Z,20.20
2019-02-14T10:12:27.903Z,19.83
2019-02-14T10:14:55.074Z,16.23
2019-02-14T10:17:22.834Z,11.73
2019-02-14T10:19:50.478Z,25.10
2019-02-14T10:22:17.975Z,19.13
2019-02-14T10:24:47.440Z,21.05
2019-02-14T10:27:15.448Z,9.40
2019-02-14T10:29:47.180Z,19.03
2019-02-14T10:32:15.831Z,15.63
2019-02-14T10:34:44.235Z,14.80
2019-02-14T10:37:12.303Z,19.70
2019-02-14T10:39:40.429Z,16.70
2019-02-14T10:42:09.015Z,27.00
2019-02-14T10:44:35.728Z,25.40
2019-02-14T10:47:02.702Z,12.50
2019-02-14T10:49:30.326Z,18.07
2019-02-14T10:51:58.089Z,13.27
2019-02-14T10:54:25.351Z,15.03
2019-02-14T10:56:54.536Z,37.43
2019-02-14T10:59:21.424Z,23.67
2019-02-14T11:01:48.648Z,14.50
2019-02-14T11:04:16.322Z,22.23
2019-02-14T11:06:43.405Z,21.13
2019-02-14T11:09:12.628Z,41.47
2019-02-14T11:11:39.893Z,20.60
2019-02-14T11:14:09.324Z,15.27
2019-02-14T11:16:38.868Z,19.13
2019-02-14T11:19:08.128Z,21.87
2019-02-14T11:21:35.255Z,21.10
2019-02-14T11:24:04.145Z,14.53
2019-02-14T11:26:31.475Z,14.00
2019-02-14T11:29:03.039Z,14.00
2019-02-14T11:31:29.735Z,14.30
2019-02-14T11:33:56.686Z,21.73
2019-02-14T11:36:23.389Z,19.90
2019-02-14T11:38:50.704Z,10.30
2019-02-14T11:41:18.470Z,16.17
2019-02-14T11:43:45.831Z,15.07
2019-02-14T11:46:13.072Z,15.57
2019-02-14T11:48:39.725Z,16.20
2019-02-14T11:51:06.786Z,12.03
2019-02-14T11:53:34.074Z,19.93
2019-02-14T11:56:01.255Z,17.40
2019-02-14T11:58:28.288Z,13.60
2019-02-14T12:00:55.345Z,18.77
2019-02-14T12:03:22.310Z,16.27
2019-02-14T12:05:49.554Z,15.57
2019-02-14T12:08:16.241Z,11.47
2019-02-14T12:10:43.666Z,22.60
2019-02-14T12:13:10.727Z,20.23
2019-02-14T12:15:38.607Z,18.00
2019-02-14T12:18:05.299Z,12.20
2019-02-14T12:20:31.971Z,14.13
2019-02-14T12:22:59.149Z,14.60
2019-02-14T12:25:26.428Z,13.70
2019-02-14T12:27:53.703Z,13.77
2019-02-14T12:30:21.056Z,11.80
2019-02-14T12:32:48.638Z,14.00
2019-02-14T12:35:16.156Z,8.77
2019-02-14T12:37:43.104Z,11.87
2019-02-14T12:40:10.566Z,12.77
2019-02-14T12:42:38.342Z,12.97
2019-02-14T12:45:07.402Z,11.27
2019-02-14T12:47:34.414Z,12.93
2019-02-14T12:50:01.103Z,8.50
2019-02-14T12:52:27.811Z,9.47
2019-02-14T12:54:55.658Z,9.30
2019-02-14T12:57:22.910Z,10.10
2019-02-14T12:59:50.442Z,11.07
2019-02-14T13:02:17.629Z,9.37
2019-02-14T13:04:44.329Z,11.70
2019-02-14T13:07:12.294Z,10.87
2019-02-14T13:09:40.120Z,12.33
2019-02-14T13:12:08.023Z,30.87
2019-02-14T13:14:36.010Z,11.83
2019-02-14T13:17:03.562Z,8.43
2019-02-14T13:19:30.233Z,10.63
2019-02-14T13:21:57.760Z,9.07
2019-02-14T13:24:25.527Z,10.20
2019-02-14T13:26:52.349Z,8.80
2019-02-14T13:29:19.251Z,9.57
2019-02-14T13:31:46.026Z,13.37
2019-02-14T13:34:13.208Z,12.40
2019-02-14T13:36:40.341Z,10.50
2019-02-14T13:39:07.628Z,8.80
2019-02-14T13:41:35.397Z,11.50
2019-02-14T13:44:02.610Z,7.20
2019-02-14T13:46:30.066Z,6.53
2019-02-14T13:48:56.782Z,10.80
2019-02-14T13:51:24.173Z,7.00
2019-02-14T13:53:51.720Z,10.93
2019-02-14T13:56:19.425Z,6.27
2019-02-14T13:58:46.253Z,11.30
2019-02-14T14:01:13.207Z,13.23
2019-02-14T14:03:40.739Z,8.17
2019-02-14T14:06:07.452Z,6.80
2019-02-14T14:08:34.383Z,8.10
2019-02-14T14:11:01.878Z,8.37
2019-02-14T14:13:28.535Z,8.70
2019-02-14T14:15:55.435Z,8.27
2019-02-14T14:18:23.005Z,6.13
2019-02-14T14:20:50.147Z,8.93
2019-02-14T14:23:16.842Z,4.53
2019-02-14T14:25:43.550Z,6.10
2019-02-14T14:28:11.247Z,8.30
2019-02-14T14:30:39.192Z,7.87
2019-02-14T14:33:06.054Z,8.10
2019-02-14T14:35:33.622Z,7.60
2019-02-14T14:38:01.118Z,8.60
2019-02-14T14:40:29.426Z,8.57
2019-02-14T14:43:31.706Z,8.53
2019-02-14T14:46:11.730Z,4.67
2019-02-14T14:48:40.782Z,7.90
2019-02-14T14:51:08.278Z,9.60
2019-02-14T14:53:35.727Z,8.73
2019-02-14T14:56:02.955Z,8.50
2019-02-14T14:58:30.305Z,9.47
2019-02-14T15:00:57.225Z,9.20
2019-02-14T15:03:24.310Z,9.70
2019-02-14T15:05:51.908Z,9.53
2019-02-14T15:08:19.892Z,8.73
2019-02-14T15:10:46.551Z,8.97
2019-02-14T15:13:13.380Z,8.93
2019-02-14T15:15:40.891Z,6.80
2019-02-14T15:18:09.281Z,7.53
2019-02-14T15:20:37.316Z,7.47
2019-02-14T15:23:04.230Z,7.50
2019-02-14T15:25:31.729Z,8.63
2019-02-14T15:27:58.570Z,8.80
2019-02-14T15:30:25.511Z,7.77
2019-02-14T15:32:52.207Z,7.70
2019-02-14T15:35:19.827Z,7.33
2019-02-14T15:37:47.300Z,5.90
2019-02-14T15:40:14.598Z,4.67
2019-02-14T15:42:41.326Z,7.47
2019-02-14T15:45:08.873Z,6.40
2019-02-14T15:47:35.566Z,11.50
2019-02-14T15:50:06.034Z,8.60
2019-02-14T15:52:33.770Z,10.10
2019-02-14T15:55:00.494Z,9.40
2019-02-14T15:57:27.459Z,9.30
2019-02-14T15:59:54.136Z,10.77
2019-02-14T16:02:21.265Z,10.60
2019-02-14T16:04:48.596Z,7.60
2019-02-14T16:07:17.568Z,10.17
2019-02-14T16:09:45.043Z,10.90
2019-02-14T16:12:13.012Z,10.07
2019-02-14T16:14:40.741Z,10.47
2019-02-14T16:17:11.840Z,10.70
2019-02-14T16:19:38.769Z,9.40
2019-02-14T16:22:05.995Z,10.47
2019-02-14T16:24:32.670Z,12.07
2019-02-14T16:27:01.157Z,12.20
2019-02-14T16:29:28.185Z,10.47
2019-02-14T16:31:54.965Z,11.17
2019-02-14T16:34:21.651Z,10.23
2019-02-14T16:36:48.327Z,10.50
2019-02-14T16:39:15.237Z,10.90
2019-02-14T16:41:42.218Z,8.90
2019-02-14T16:44:08.905Z,11.53
2019-02-14T16:46:35.682Z,11.40
2019-02-14T16:49:02.952Z,11.13
2019-02-14T16:51:30.096Z,12.13
2019-02-14T16:53:57.533Z,11.20
2019-02-14T16:56:24.480Z,10.53
2019-02-14T16:58:52.023Z,10.97
2019-02-14T17:01:19.166Z,12.07
2019-02-14T17:03:49.316Z,12.60
2019-02-14T17:06:19.384Z,13.63
2019-02-14T17:08:49.140Z,13.87
2019-02-14T17:11:18.402Z,11.67
2019-02-14T17:13:47.065Z,11.73
2019-02-14T17:16:16.225Z,12.07
2019-02-14T17:18:43.721Z,12.20
2019-02-14T17:21:12.184Z,12.07
2019-02-14T17:23:41.402Z,9.60
2019-02-14T17:26:10.090Z,11.50
2019-02-14T17:28:39.756Z,11.27
2019-02-14T17:31:09.410Z,11.97
2019-02-14T17:33:40.506Z,13.83
2019-02-14T17:36:10.137Z,12.20
2019-02-14T17:38:39.987Z,9.67
2019-02-14T17:41:08.430Z,8.73
2019-02-14T17:43:38.674Z,11.60
2019-02-14T17:46:07.883Z,10.70
2019-02-14T17:48:37.966Z,9.27
2019-02-14T17:51:06.515Z,11.43
2019-02-14T17:53:35.627Z,10.60
2019-02-14T17:56:05.157Z,10.20
2019-02-14T17:58:32.762Z,10.97
2019-02-14T18:01:01.337Z,11.20
2019-02-14T18:03:31.211Z,12.60
2019-02-14T18:06:01.241Z,11.70
2019-02-14T18:08:30.818Z,11.97
2019-02-14T18:11:00.296Z,12.43
2019-02-14T18:13:41.435Z,11.90
2019-02-14T18:16:09.805Z,11.40
2019-02-14T18:18:38.668Z,12.60
2019-02-14T18:21:07.083Z,10.80
2019-02-14T18:23:35.956Z,12.60
2019-02-14T18:26:04.613Z,12.43
2019-02-14T18:28:33.342Z,12.80
2019-02-14T18:31:01.863Z,12.93
2019-02-14T18:33:30.797Z,12.33
2019-02-14T18:35:59.261Z,12.90
2019-02-14T18:38:30.496Z,11.33
2019-02-14T18:41:04.347Z,13.67
2019-02-14T18:43:34.715Z,13.30
2019-02-14T18:46:03.596Z,11.43
2019-02-14T18:48:32.765Z,12.73
2019-02-14T18:51:02.803Z,10.80
2019-02-14T18:53:32.571Z,11.77
2019-02-14T18:56:02.480Z,14.00
2019-02-14T18:58:30.693Z,12.47
2019-02-14T19:00:59.553Z,12.60
2019-02-14T19:03:28.881Z,12.47
2019-02-14T19:05:58.911Z,13.00
2019-02-14T19:08:29.667Z,12.93
2019-02-14T19:10:58.249Z,12.20
2019-02-14T19:13:27.145Z,12.80
2019-02-14T19:15:57.676Z,11.43
2019-02-14T19:18:29.663Z,12.93
2019-02-14T19:21:00.172Z,12.47
2019-02-14T19:23:28.813Z,14.07
2019-02-14T19:25:57.211Z,12.77
2019-02-14T19:28:28.538Z,12.67
2019-02-14T19:31:00.036Z,13.20
2019-02-14T19:33:29.097Z,12.53
2019-02-14T19:35:57.938Z,12.90
2019-02-14T19:38:28.251Z,11.93
2019-02-14T19:40:57.435Z,13.00
2019-02-14T19:43:26.642Z,13.70
2019-02-14T19:45:55.519Z,12.50
2019-02-14T19:48:24.363Z,12.00
2019-02-14T19:50:53.280Z,12.67
2019-02-14T19:53:23.474Z,12.03
2019-02-14T19:55:52.463Z,12.80
2019-02-14T19:58:21.976Z,14.10
2019-02-14T20:00:54.114Z,13.30
2019-02-14T20:03:25.307Z,12.57
2019-02-14T20:05:54.889Z,11.70
2019-02-14T20:08:24.129Z,12.30
2019-02-14T20:10:53.486Z,13.47
2019-02-14T20:13:22.107Z,14.30
2019-02-14T20:15:51.441Z,14.23
2019-02-14T20:18:20.475Z,13.60
2019-02-14T20:20:49.301Z,11.40
2019-02-14T20:23:18.649Z,13.17
2019-02-14T20:25:47.642Z,12.60
2019-02-14T20:28:16.425Z,13.80
2019-02-14T20:30:46.233Z,13.10
2019-02-14T20:33:15.218Z,13.60
2019-02-14T20:35:44.633Z,10.10
2019-02-14T20:38:15.193Z,12.20
2019-02-14T20:40:46.721Z,12.23
2019-02-14T20:43:15.474Z,10.90
2019-02-14T20:45:44.865Z,10.35
2019-02-14T20:48:13.910Z,21.23
2019-02-14T20:50:43.403Z,13.00
2019-02-14T20:53:13.636Z,17.65
2019-02-14T20:55:43.164Z,18.25
2019-02-14T20:58:12.756Z,20.00
2019-02-14T21:00:41.427Z,18.60
2019-02-14T21:03:12.309Z,16.42
2019-02-14T21:05:40.888Z,16.62
2019-02-14T21:08:10.033Z,13.95
2019-02-14T21:10:39.347Z,16.03
2019-02-14T21:13:08.788Z,13.53
2019-02-14T21:15:38.821Z,14.03
2019-02-14T21:18:13.825Z,17.70
2019-02-14T21:20:46.068Z,16.23
2019-02-14T21:23:16.032Z,13.65
2019-02-14T21:25:45.604Z,14.15
2019-02-14T21:28:14.177Z,13.43
2019-02-14T21:30:42.919Z,15.05
2019-02-14T21:33:11.707Z,13.53
2019-02-14T21:35:41.903Z,16.10
2019-02-14T21:38:10.488Z,29.02
2019-02-14T21:40:40.241Z,41.30
2019-02-14T21:43:09.074Z,11.40
2019-02-14T21:45:37.513Z,17.87
2019-02-14T21:48:06.444Z,25.92
2019-02-14T21:50:36.437Z,22.65
2019-02-14T21:53:05.572Z,19.25
2019-02-14T21:55:35.508Z,11.48
2019-02-14T21:58:05.612Z,13.48
2019-02-14T22:00:34.913Z,11.97
2019-02-14T22:03:04.884Z,14.85
2019-02-14T22:05:34.950Z,21.97
2019-02-14T22:08:02.980Z,18.20
2019-02-14T22:10:41.630Z,15.90
2019-02-14T22:13:11.444Z,15.65
2019-02-14T22:15:40.010Z,14.40
2019-02-14T22:18:11.721Z,14.13
2019-02-14T22:20:43.982Z,14.00
2019-02-14T22:23:13.647Z,15.10
2019-02-14T22:25:48.052Z,14.18
2019-02-14T22:28:24.693Z,14.15
2019-02-14T22:30:54.344Z,15.05
2019-02-14T22:33:24.323Z,14.68
2019-02-14T22:35:52.999Z,14.47
2019-02-14T22:38:21.758Z,21.57
2019-02-14T22:40:55.157Z,16.87
2019-02-14T22:43:26.166Z,16.37
2019-02-14T22:45:55.539Z,14.83
2019-02-14T22:48:22.206Z,12.98
2019-02-14T22:50:49.737Z,18.75
2019-02-14T22:53:16.453Z,13.93
2019-02-14T22:55:43.762Z,12.10
2019-02-14T22:58:10.444Z,14.28
2019-02-14T23:00:41.009Z,11.43
2019-02-14T23:03:09.088Z,13.08
2019-02-14T23:05:36.678Z,26.17
2019-02-14T23:08:03.677Z,14.70
2019-02-14T23:10:31.350Z,13.00
2019-02-14T23:13:00.607Z,12.88
2019-02-14T23:15:27.792Z,12.95
2019-02-14T23:17:54.837Z,12.33
2019-02-14T23:20:22.194Z,13.93
2019-02-14T23:22:49.199Z,14.00
2019-02-14T23:25:16.297Z,13.75
2019-02-14T23:27:42.980Z,11.93
2019-02-14T23:30:10.946Z,12.28
2019-02-14T23:32:38.212Z,12.33
2019-02-14T23:35:05.434Z,13.43
2019-02-14T23:37:34.518Z,13.85
2019-02-14T23:40:01.289Z,13.95
2019-02-14T23:42:31.515Z,13.98
2019-02-14T23:44:59.257Z,12.13
2019-02-14T23:47:25.956Z,13.08
2019-02-14T23:49:53.967Z,13.18
2019-02-14T23:52:21.097Z,12.45
2019-02-14T23:54:48.042Z,13.15
2019-02-14T23:57:15.823Z,13.78
2019-02-14T23:59:43.371Z,14.33
